Time;durP1;ratioP1;P1;durP2;ratioP2;P2;SDS_P1;SDS_P2;PMS_P1;PMS_P2;Temp;Humidity;BMP_temperature;BMP_pressure;BME280_temperature;BME280_humidity;BME280_pressure;Samples;Min_cycle;Max_cycle;Signal;HPM_P1;HPM_P2
2023/06/08 00:02:39;;;;;;;17.57;9.73;;;13.60;99.90;;;;;;4376504;28;659590;-75
2023/06/08 00:05:28;;;;;;;9.73;7.23;;;13.60;99.90;;;;;;4356661;28;659058;-74
2023/06/08 00:08:15;;;;;;;13.70;6.83;;;13.50;99.90;;;;;;4374746;28;657798;-74
2023/06/08 00:11:02;;;;;;;8.87;6.47;;;13.50;99.90;;;;;;4395316;27;661604;-75
2023/06/08 00:13:50;;;;;;;9.40;6.27;;;13.40;99.90;;;;;;4388523;28;657509;-75
2023/06/08 00:16:38;;;;;;;9.50;7.23;;;13.30;99.90;;;;;;4383229;28;657724;-74
2023/06/08 00:19:25;;;;;;;8.37;6.10;;;13.20;99.90;;;;;;4361464;28;657823;-74
2023/06/08 00:22:14;;;;;;;9.97;6.20;;;13.10;99.90;;;;;;4383059;28;657886;-74
2023/06/08 00:25:02;;;;;;;8.43;6.47;;;13.00;99.90;;;;;;4360967;28;657959;-74
2023/06/08 00:27:49;;;;;;;10.17;7.20;;;13.00;99.90;;;;;;4383874;27;658008;-74
2023/06/08 00:30:37;;;;;;;11.27;6.97;;;12.90;99.90;;;;;;4358941;28;659275;-74
2023/06/08 00:33:24;;;;;;;9.23;6.67;;;12.80;99.90;;;;;;4391506;27;659216;-74
2023/06/08 00:36:11;;;;;;;12.47;6.83;;;12.70;99.90;;;;;;4366396;27;657538;-74
2023/06/08 00:39:00;;;;;;;10.27;7.07;;;12.70;99.90;;;;;;4412966;27;659486;-74
2023/06/08 00:41:47;;;;;;;11.23;7.70;;;12.60;99.90;;;;;;4354945;28;659688;-74
2023/06/08 00:44:34;;;;;;;13.37;8.83;;;12.60;99.90;;;;;;4386234;27;658749;-74
2023/06/08 00:47:21;;;;;;;12.43;8.50;;;12.60;99.90;;;;;;4356288;28;658720;-74
2023/06/08 00:50:09;;;;;;;12.43;8.23;;;12.50;99.90;;;;;;4374751;28;659206;-74
2023/06/08 00:52:56;;;;;;;11.87;7.90;;;12.50;99.90;;;;;;4396291;27;658972;-74
2023/06/08 00:55:46;;;;;;;10.30;7.10;;;12.40;99.90;;;;;;4378847;28;658677;-74
2023/06/08 00:58:33;;;;;;;12.60;7.83;;;12.30;99.90;;;;;;4358582;28;659226;-74
2023/06/08 01:01:20;;;;;;;10.20;7.40;;;12.30;99.90;;;;;;4374318;27;658661;-74
2023/06/08 01:04:09;;;;;;;27.70;8.37;;;12.20;99.90;;;;;;4394247;27;658800;-74
2023/06/08 01:07:04;;;;;;;12.37;7.63;;;12.10;99.90;;;;;;4369580;28;658759;-74
2023/06/08 01:09:54;;;;;;;10.03;7.17;;;12.00;99.90;;;;;;4358679;27;658983;-74
2023/06/08 01:12:46;;;;;;;9.87;7.10;;;11.90;99.90;;;;;;4360748;28;659150;-75
2023/06/08 01:15:36;;;;;;;8.77;6.63;;;11.90;99.90;;;;;;4358894;28;657679;-74
2023/06/08 01:18:23;;;;;;;9.77;7.30;;;11.80;99.90;;;;;;4358006;28;657822;-74
2023/06/08 01:21:24;;;;;;;9.93;7.20;;;11.80;99.90;;;;;;4374510;28;657628;-74
2023/06/08 01:24:14;;;;;;;8.87;6.30;;;11.80;99.90;;;;;;4372169;27;657449;-75
2023/06/08 01:27:06;;;;;;;10.03;6.80;;;11.70;99.90;;;;;;4377834;27;657685;-74
2023/06/08 01:29:54;;;;;;;10.27;6.50;;;11.60;99.90;;;;;;4357640;28;658724;-74
2023/06/08 01:32:44;;;;;;;10.70;6.63;;;11.60;99.90;;;;;;4351340;28;659581;-74
2023/06/08 01:35:32;;;;;;;8.37;6.40;;;11.60;99.90;;;;;;4362395;28;658766;-74
2023/06/08 01:38:22;;;;;;;10.27;6.73;;;11.50;99.90;;;;;;4387911;28;657803;-74
2023/06/08 01:41:12;;;;;;;10.47;6.43;;;11.50;99.90;;;;;;4387904;27;658877;-74
2023/06/08 01:43:59;;;;;;;9.43;6.50;;;11.40;99.90;;;;;;4362630;27;659058;-74
2023/06/08 01:46:48;;;;;;;8.70;6.20;;;11.40;99.90;;;;;;4363714;27;657876;-75
2023/06/08 01:49:36;;;;;;;11.63;6.40;;;11.40;99.90;;;;;;4361758;28;657781;-74
2023/06/08 01:52:23;;;;;;;10.13;6.07;;;11.40;99.90;;;;;;4394533;28;658976;-74
2023/06/08 01:55:15;;;;;;;7.80;6.00;;;11.40;99.90;;;;;;4364860;28;658414;-74
2023/06/08 01:58:04;;;;;;;8.40;5.97;;;11.40;99.90;;;;;;4357886;28;658811;-74
2023/06/08 02:00:51;;;;;;;7.67;5.53;;;11.30;99.90;;;;;;4355033;27;657669;-74
2023/06/08 02:03:39;;;;;;;9.20;5.27;;;11.20;99.90;;;;;;4392148;28;657987;-74
2023/06/08 02:06:26;;;;;;;7.47;5.60;;;11.20;99.90;;;;;;4375258;28;658637;-75
2023/06/08 02:09:13;;;;;;;7.37;5.63;;;11.10;99.90;;;;;;4386398;28;658196;-74
2023/06/08 02:12:06;;;;;;;7.77;5.43;;;11.10;99.90;;;;;;4370137;28;659193;-74
2023/06/08 02:14:54;;;;;;;7.10;5.37;;;11.10;99.90;;;;;;4392424;27;658548;-74
2023/06/08 02:17:42;;;;;;;7.20;5.73;;;11.00;99.90;;;;;;4355094;28;658781;-74
2023/06/08 02:20:33;;;;;;;6.73;4.83;;;11.00;99.90;;;;;;4402634;27;657728;-74
2023/06/08 02:23:20;;;;;;;7.40;5.13;;;11.00;99.90;;;;;;4346604;28;657884;-74
2023/06/08 02:26:08;;;;;;;6.07;4.97;;;11.00;99.90;;;;;;4388856;27;658277;-74
2023/06/08 02:28:55;;;;;;;7.47;5.53;;;11.00;99.90;;;;;;4360467;28;658333;-74
2023/06/08 02:31:44;;;;;;;9.43;6.00;;;11.00;99.90;;;;;;4386814;28;658458;-74
2023/06/08 02:34:31;;;;;;;7.63;5.07;;;11.00;99.90;;;;;;4366985;27;657724;-74
2023/06/08 02:37:18;;;;;;;9.93;5.50;;;11.00;99.90;;;;;;4399831;27;658011;-74
2023/06/08 02:40:08;;;;;;;8.17;5.63;;;11.00;99.90;;;;;;4377980;27;657727;-74
2023/06/08 02:42:55;;;;;;;7.13;5.17;;;11.00;99.90;;;;;;4366910;28;658417;-74
2023/06/08 02:45:42;;;;;;;8.60;5.30;;;11.00;99.90;;;;;;4393845;27;658110;-74
2023/06/08 02:48:32;;;;;;;7.87;5.83;;;11.00;99.90;;;;;;4410679;27;658024;-74
2023/06/08 02:51:19;;;;;;;7.30;5.80;;;11.00;99.90;;;;;;4394448;27;657377;-74
2023/06/08 02:54:06;;;;;;;6.67;5.40;;;11.00;99.90;;;;;;4356023;27;657575;-74
2023/06/08 02:56:54;;;;;;;10.47;5.93;;;11.00;99.90;;;;;;4395389;28;658362;-73
2023/06/08 02:59:41;;;;;;;8.97;5.97;;;11.10;99.90;;;;;;4366354;28;659096;-73
2023/06/08 03:02:28;;;;;;;6.93;5.60;;;11.10;99.90;;;;;;4376325;28;658132;-73
2023/06/08 03:05:17;;;;;;;12.80;5.40;;;11.00;99.90;;;;;;4384478;27;658345;-74
2023/06/08 03:08:04;;;;;;;7.53;5.17;;;11.00;99.90;;;;;;4388139;27;658238;-74
2023/06/08 03:10:52;;;;;;;10.77;5.30;;;11.00;99.90;;;;;;4355930;28;657664;-74
2023/06/08 03:13:39;;;;;;;6.53;5.27;;;11.00;99.90;;;;;;4375787;28;658979;-74
2023/06/08 03:16:26;;;;;;;10.63;5.93;;;11.00;99.90;;;;;;4392189;27;657729;-73
2023/06/08 03:19:14;;;;;;;8.97;6.07;;;11.10;99.90;;;;;;4376431;28;659476;-74
2023/06/08 03:22:04;;;;;;;7.50;6.13;;;11.10;99.90;;;;;;4357346;28;657865;-74
2023/06/08 03:24:52;;;;;;;8.53;6.43;;;11.20;99.90;;;;;;4392859;27;657176;-74
2023/06/08 03:27:39;;;;;;;9.50;6.40;;;11.20;99.90;;;;;;4386857;27;657670;-74
2023/06/08 03:30:27;;;;;;;9.67;6.37;;;11.30;99.90;;;;;;4383402;27;657567;-73
2023/06/08 03:33:15;;;;;;;7.63;5.93;;;11.40;99.90;;;;;;4403862;27;657908;-74
2023/06/08 03:36:02;;;;;;;8.00;6.47;;;11.40;99.90;;;;;;4397652;27;658734;-74
2023/06/08 03:38:51;;;;;;;9.80;6.90;;;11.50;99.90;;;;;;4393088;27;657509;-74
2023/06/08 03:41:38;;;;;;;9.60;6.90;;;11.60;99.90;;;;;;4359502;28;657793;-74
2023/06/08 03:44:25;;;;;;;8.60;6.73;;;11.70;99.90;;;;;;4364921;27;657392;-74
2023/06/08 03:47:12;;;;;;;9.47;7.03;;;11.80;99.90;;;;;;4393674;27;657771;-74
2023/06/08 03:50:01;;;;;;;10.77;8.00;;;11.90;99.90;;;;;;4382629;27;657760;-74
2023/06/08 03:52:48;;;;;;;14.27;9.83;;;12.10;99.90;;;;;;4402044;27;659351;-73
2023/06/08 03:55:37;;;;;;;18.40;10.98;;;12.20;99.90;;;;;;4385244;27;659358;-73
2023/06/08 03:58:24;;;;;;;16.20;11.50;;;12.50;99.90;;;;;;4374635;28;659384;-74
2023/06/08 04:01:11;;;;;;;17.17;11.93;;;12.70;99.90;;;;;;4362793;28;659528;-74
2023/06/08 04:03:58;;;;;;;18.23;12.00;;;12.90;99.90;;;;;;4377279;27;661118;-74
2023/06/08 04:06:46;;;;;;;14.57;10.23;;;13.10;99.90;;;;;;4371366;27;659772;-74
2023/06/08 04:09:33;;;;;;;15.23;10.37;;;13.30;99.90;;;;;;4403659;28;660774;-73
2023/06/08 04:12:22;;;;;;;16.23;10.63;;;13.40;99.90;;;;;;4367999;28;660124;-73
2023/06/08 04:15:10;;;;;;;16.30;11.73;;;13.50;99.90;;;;;;4397374;27;659336;-73
2023/06/08 04:17:58;;;;;;;19.93;12.50;;;13.70;99.90;;;;;;4351530;28;660849;-74
2023/06/08 04:20:46;;;;;;;16.33;11.90;;;13.90;99.90;;;;;;4362643;28;659937;-74
2023/06/08 04:23:33;;;;;;;16.70;11.73;;;14.00;99.90;;;;;;4374940;28;660731;-73
2023/06/08 04:26:20;;;;;;;16.03;10.73;;;14.10;99.90;;;;;;4353370;28;660191;-73
2023/06/08 04:29:10;;;;;;;17.63;11.10;;;14.20;99.90;;;;;;4376346;28;661239;-74
2023/06/08 04:31:57;;;;;;;18.93;11.10;;;14.30;99.90;;;;;;4363027;28;660600;-72
2023/06/08 04:34:44;;;;;;;14.17;10.13;;;14.40;99.90;;;;;;4400366;27;660053;-73
2023/06/08 04:37:32;;;;;;;13.85;9.63;;;14.50;99.90;;;;;;4395180;27;659526;-73
2023/06/08 04:40:19;;;;;;;15.90;9.70;;;14.60;99.90;;;;;;4382170;27;658101;-73
2023/06/08 04:43:08;;;;;;;14.03;9.27;;;14.70;99.90;;;;;;4370567;28;658406;-73
2023/06/08 04:45:59;;;;;;;11.73;8.33;;;14.70;99.90;;;;;;4362503;28;658727;-73
2023/06/08 04:48:46;;;;;;;11.60;7.33;;;14.80;99.90;;;;;;4388838;28;659543;-73
2023/06/08 04:51:33;;;;;;;10.60;7.40;;;14.90;99.90;;;;;;4378020;28;660237;-73
2023/06/08 04:54:21;;;;;;;11.83;7.77;;;15.00;99.90;;;;;;4373979;27;659315;-73
2023/06/08 04:57:09;;;;;;;7.07;5.80;;;15.10;99.90;;;;;;4389491;27;659090;-73
2023/06/08 04:59:57;;;;;;;6.67;5.17;;;15.20;99.90;;;;;;4362946;28;657390;-73
2023/06/08 05:02:46;;;;;;;6.10;4.97;;;15.40;99.90;;;;;;4412702;27;658552;-74
2023/06/08 05:05:33;;;;;;;8.97;5.57;;;15.50;99.90;;;;;;4360858;28;657807;-73
2023/06/08 05:08:20;;;;;;;7.53;6.03;;;15.60;99.90;;;;;;4399068;27;657972;-74
2023/06/08 05:11:08;;;;;;;10.93;6.60;;;15.70;99.90;;;;;;4386028;27;658304;-73
2023/06/08 05:13:55;;;;;;;10.77;7.13;;;15.80;99.90;;;;;;4366270;27;658628;-73
2023/06/08 05:16:42;;;;;;;7.80;5.60;;;16.00;99.90;;;;;;4391731;27;659067;-73
2023/06/08 05:19:32;;;;;;;7.97;6.23;;;16.00;99.90;;;;;;4384954;28;658367;-73
2023/06/08 05:22:19;;;;;;;9.23;6.70;;;16.10;99.90;;;;;;4376609;28;657767;-73
2023/06/08 05:25:07;;;;;;;8.40;6.43;;;16.20;99.90;;;;;;4362155;28;658086;-74
2023/06/08 05:27:54;;;;;;;8.93;6.20;;;16.40;99.90;;;;;;4382798;27;658820;-73
2023/06/08 05:30:41;;;;;;;9.30;6.50;;;16.40;99.90;;;;;;4355227;28;657858;-74
2023/06/08 05:33:29;;;;;;;10.70;6.23;;;16.50;99.90;;;;;;4385073;28;658259;-73
2023/06/08 05:36:18;;;;;;;9.57;6.67;;;16.60;99.90;;;;;;4362394;28;658757;-75
2023/06/08 05:39:05;;;;;;;10.97;6.70;;;16.60;99.90;;;;;;4395588;27;658102;-75
2023/06/08 05:41:52;;;;;;;9.27;6.93;;;16.70;99.90;;;;;;4386145;27;658719;-74
2023/06/08 05:44:40;;;;;;;12.23;7.03;;;16.80;99.90;;;;;;4392767;27;658015;-73
2023/06/08 05:47:27;;;;;;;12.50;7.93;;;16.80;99.90;;;;;;4355941;28;658988;-75
2023/06/08 05:50:14;;;;;;;9.73;7.33;;;16.70;99.90;;;;;;4380690;28;659526;-75
2023/06/08 05:53:03;;;;;;;10.73;7.60;;;16.70;99.90;;;;;;4364627;28;659537;-75
2023/06/08 05:55:50;;;;;;;12.43;7.90;;;16.70;99.90;;;;;;4355427;28;658450;-75
2023/06/08 05:58:37;;;;;;;9.37;7.23;;;16.80;99.90;;;;;;4418540;27;658833;-76
2023/06/08 06:01:25;;;;;;;11.87;8.17;;;16.90;99.90;;;;;;4410712;27;657673;-75
2023/06/08 06:04:12;;;;;;;11.13;7.40;;;16.90;99.90;;;;;;4378899;27;659424;-76
2023/06/08 06:07:00;;;;;;;12.47;8.13;;;16.70;99.90;;;;;;4387657;28;658733;-75
2023/06/08 06:09:49;;;;;;;12.77;8.10;;;16.50;99.90;;;;;;4395484;28;658873;-76
2023/06/08 06:12:36;;;;;;;12.77;8.38;;;16.40;99.90;;;;;;4378869;27;658540;-77
2023/06/08 06:15:23;;;;;;;9.83;7.50;;;16.40;99.90;;;;;;4377540;28;659435;-76
2023/06/08 06:18:11;;;;;;;12.63;8.47;;;16.40;99.90;;;;;;4370284;28;658268;-75
2023/06/08 06:20:58;;;;;;;12.73;8.57;;;16.40;99.90;;;;;;4394876;27;659632;-76
2023/06/08 06:23:45;;;;;;;12.63;9.00;;;16.30;99.90;;;;;;4364161;28;658764;-75
2023/06/08 06:26:34;;;;;;;13.57;9.77;;;16.40;99.90;;;;;;4377773;28;659382;-77
2023/06/08 06:29:21;;;;;;;15.50;10.13;;;16.50;99.90;;;;;;4360345;28;658662;-76
2023/06/08 06:32:09;;;;;;;12.83;9.07;;;16.70;99.90;;;;;;4375588;27;660515;-77
2023/06/08 06:34:56;;;;;;;16.27;9.63;;;16.70;99.90;;;;;;4368564;27;658654;-76
2023/06/08 06:37:43;;;;;;;13.70;8.97;;;16.80;99.90;;;;;;4390298;27;659068;-76
2023/06/08 06:40:30;;;;;;;12.63;8.87;;;16.80;99.90;;;;;;4364558;28;658932;-77
2023/06/08 06:43:20;;;;;;;12.40;9.37;;;16.90;99.90;;;;;;4387836;28;659309;-76
2023/06/08 06:46:08;;;;;;;14.40;8.63;;;16.90;99.90;;;;;;4354346;28;659890;-77
2023/06/08 06:48:55;;;;;;;13.73;8.97;;;16.90;99.90;;;;;;4378113;28;660142;-75
2023/06/08 06:51:42;;;;;;;14.47;9.30;;;17.00;99.90;;;;;;4379689;27;659443;-77
2023/06/08 06:54:32;;;;;;;13.93;10.03;;;16.90;99.90;;;;;;4383274;28;658496;-76
2023/06/08 06:57:19;;;;;;;12.07;9.07;;;16.70;99.90;;;;;;4365052;28;660151;-77
2023/06/08 07:00:10;;;;;;;13.50;9.20;;;16.80;99.90;;;;;;4351176;28;658925;-76
2023/06/08 07:02:58;;;;;;;14.23;9.87;;;16.80;99.90;;;;;;4358526;27;659258;-77
2023/06/08 07:05:46;;;;;;;12.47;9.23;;;16.70;99.90;;;;;;4363190;28;658701;-76
2023/06/08 07:08:33;;;;;;;14.07;9.70;;;16.90;99.90;;;;;;4407026;27;659655;-75
2023/06/08 07:11:20;;;;;;;20.93;10.73;;;17.00;99.90;;;;;;4376634;27;659224;-76
2023/06/08 07:14:08;;;;;;;14.53;9.70;;;17.00;99.90;;;;;;4378653;28;661284;-74
2023/06/08 07:16:57;;;;;;;13.53;9.47;;;17.00;99.90;;;;;;4373866;27;658787;-74
2023/06/08 07:19:46;;;;;;;13.77;9.73;;;17.00;99.90;;;;;;4381317;28;658397;-77
2023/06/08 07:22:33;;;;;;;13.23;9.70;;;17.10;99.90;;;;;;4370545;28;659411;-77
2023/06/08 07:25:20;;;;;;;15.97;9.83;;;17.10;99.90;;;;;;4373136;27;658805;-76
2023/06/08 07:28:07;;;;;;;14.27;9.70;;;17.10;99.90;;;;;;4385367;28;658536;-75
2023/06/08 07:30:55;;;;;;;16.97;10.53;;;17.30;99.90;;;;;;4373099;28;658455;-76
2023/06/08 07:33:44;;;;;;;15.47;10.60;;;17.20;99.90;;;;;;4384208;28;660643;-78
2023/06/08 07:36:31;;;;;;;13.33;9.87;;;17.40;99.90;;;;;;4361580;28;659394;-76
2023/06/08 07:39:19;;;;;;;15.77;9.97;;;17.50;99.90;;;;;;4391867;27;658806;-77
2023/06/08 07:42:07;;;;;;;15.00;9.47;;;17.60;99.90;;;;;;4358433;28;659020;-76
2023/06/08 07:44:54;;;;;;;14.90;9.57;;;17.90;99.90;;;;;;4388024;27;658868;-77
2023/06/08 07:47:42;;;;;;;13.05;9.85;;;18.00;99.90;;;;;;4370894;28;658411;-79
2023/06/08 07:50:31;;;;;;;15.67;10.50;;;18.20;99.90;;;;;;4378761;28;659032;-78
2023/06/08 07:53:18;;;;;;;15.00;9.40;;;18.80;99.90;;;;;;4348425;28;661616;-77
2023/06/08 07:56:06;;;;;;;12.20;9.37;;;19.20;99.90;;;;;;4353344;28;659262;-77
2023/06/08 07:58:53;;;;;;;13.70;9.30;;;19.60;99.90;;;;;;4377062;28;659804;-77
2023/06/08 08:01:40;;;;;;;12.77;9.10;;;20.10;99.90;;;;;;4384212;27;659042;-75
2023/06/08 08:04:28;;;;;;;17.63;9.50;;;20.10;99.90;;;;;;4374881;28;660344;-77
2023/06/08 08:07:17;;;;;;;14.60;9.47;;;20.40;99.90;;;;;;4381196;27;658525;-75
2023/06/08 08:10:04;;;;;;;14.93;9.40;;;20.50;99.90;;;;;;4389301;27;658897;-76
2023/06/08 08:12:52;;;;;;;12.50;8.33;;;20.60;99.90;;;;;;4355042;28;658592;-77
2023/06/08 08:15:39;;;;;;;13.03;9.17;;;20.70;99.90;;;;;;4397453;28;658487;-77
2023/06/08 08:18:26;;;;;;;12.33;8.37;;;20.90;99.90;;;;;;4365391;28;659122;-76
2023/06/08 08:21:14;;;;;;;11.53;7.70;;;20.90;99.90;;;;;;4374917;28;658538;-76
2023/06/08 08:24:02;;;;;;;10.83;8.07;;;20.90;99.90;;;;;;4354743;27;659726;-75
2023/06/08 08:26:53;;;;;;;11.10;8.40;;;20.90;99.90;;;;;;4383130;28;658721;-76
2023/06/08 08:29:40;;;;;;;11.73;8.60;;;20.90;99.90;;;;;;4359584;28;658911;-75
2023/06/08 08:32:28;;;;;;;11.63;8.27;;;21.10;99.90;;;;;;4394369;27;660134;-76
2023/06/08 08:35:16;;;;;;;13.63;7.77;;;21.30;99.90;;;;;;4388666;27;659456;-75
2023/06/08 08:38:03;;;;;;;10.07;7.40;;;21.40;99.90;;;;;;4393900;28;659006;-76
2023/06/08 08:40:52;;;;;;;9.77;7.37;;;21.40;99.90;;;;;;4361496;28;659399;-76
2023/06/08 08:43:43;;;;;;;9.77;7.40;;;21.50;99.90;;;;;;4380526;28;659799;-75
2023/06/08 08:46:33;;;;;;;10.87;7.97;;;21.90;99.90;;;;;;4378626;28;658044;-75
2023/06/08 08:49:21;;;;;;;11.50;7.90;;;22.20;99.90;;;;;;4362123;28;658681;-75
2023/06/08 08:52:09;;;;;;;9.77;7.60;;;21.70;99.90;;;;;;4383224;28;658805;-74
2023/06/08 08:54:57;;;;;;;9.13;7.73;;;21.30;99.90;;;;;;4368183;28;658065;-74
2023/06/08 08:57:46;;;;;;;11.03;7.90;;;21.40;99.90;;;;;;4374296;28;657602;-74
2023/06/08 09:00:33;;;;;;;9.10;6.93;;;21.40;99.90;;;;;;4357647;28;659362;-76
2023/06/08 09:03:20;;;;;;;11.80;8.10;;;21.40;99.90;;;;;;4363040;28;658055;-75
2023/06/08 09:06:08;;;;;;;10.00;7.47;;;21.30;99.90;;;;;;4395791;27;659498;-75
2023/06/08 09:08:55;;;;;;;9.23;7.37;;;21.50;99.90;;;;;;4376848;28;659120;-75
2023/06/08 09:11:56;;;;;;;9.23;7.40;;;21.60;99.90;;;;;;4397168;28;658055;-75
2023/06/08 09:14:57;;;;;;;9.93;7.47;;;21.90;99.90;;;;;;4350406;28;658177;-75
2023/06/08 09:17:44;;;;;;;9.60;7.60;;;22.00;99.90;;;;;;4361732;28;657940;-75
2023/06/08 09:20:32;;;;;;;10.87;8.07;;;22.00;99.90;;;;;;4359060;28;658266;-75
2023/06/08 09:23:22;;;;;;;9.10;7.40;;;22.00;99.90;;;;;;4382360;28;659351;-75
2023/06/08 09:26:10;;;;;;;10.80;7.80;;;21.90;99.90;;;;;;4362042;28;658681;-74
2023/06/08 09:28:57;;;;;;;11.40;8.87;;;21.70;99.90;;;;;;4356898;28;659652;-75
2023/06/08 09:31:51;;;;;;;10.17;8.13;;;21.80;99.90;;;;;;4378492;28;659109;-74
2023/06/08 09:34:58;;;;;;;11.93;8.90;;;22.00;99.90;;;;;;4361112;28;659048;-74
2023/06/08 09:37:46;;;;;;;12.18;8.90;;;22.20;99.90;;;;;;4368348;27;659232;-74
2023/06/08 09:40:34;;;;;;;11.60;8.63;;;22.80;99.90;;;;;;4379432;28;659151;-73
2023/06/08 09:43:39;;;;;;;10.33;7.80;;;22.80;99.90;;;;;;4363403;28;658655;-74
2023/06/08 09:46:38;;;;;;;11.47;8.37;;;22.80;99.90;;;;;;4369328;28;658856;-75
2023/06/08 09:49:27;;;;;;;8.80;7.50;;;22.70;99.90;;;;;;4337680;28;658502;-75
2023/06/08 09:52:14;;;;;;;10.03;8.20;;;22.80;99.90;;;;;;4384866;28;657980;-75
2023/06/08 09:55:02;;;;;;;11.07;7.97;;;22.60;99.90;;;;;;4366807;28;658815;-75
2023/06/08 09:57:49;;;;;;;15.50;8.50;;;22.80;99.90;;;;;;4391848;28;658679;-74
2023/06/08 10:00:36;;;;;;;9.77;7.67;;;23.00;99.90;;;;;;4373964;28;659379;-75
2023/06/08 10:03:27;;;;;;;10.27;6.80;;;23.30;99.90;;;;;;4389855;28;658645;-76
2023/06/08 10:06:15;;;;;;;10.47;7.50;;;23.70;99.90;;;;;;4369042;28;659043;-74
2023/06/08 10:09:03;;;;;;;9.65;7.78;;;23.50;99.90;;;;;;4373742;27;659310;-75
2023/06/08 10:11:50;;;;;;;11.73;8.30;;;23.40;99.90;;;;;;4366566;27;658214;-74
2023/06/08 10:14:38;;;;;;;13.63;8.33;;;23.20;99.90;;;;;;4384720;28;659728;-73
2023/06/08 10:17:25;;;;;;;10.27;8.10;;;23.10;99.90;;;;;;4361581;28;658514;-74
2023/06/08 10:20:16;;;;;;;10.00;7.60;;;22.80;99.90;;;;;;4378025;28;659399;-74
2023/06/08 10:23:04;;;;;;;11.50;8.60;;;22.90;99.90;;;;;;4372132;28;659656;-74
2023/06/08 10:25:53;;;;;;;15.50;9.43;;;23.20;99.90;;;;;;4372050;28;658943;-74
2023/06/08 10:29:06;;;;;;;14.10;9.27;;;22.80;99.90;;;;;;4358280;28;659234;-74
2023/06/08 10:31:53;;;;;;;14.93;10.03;;;23.00;99.90;;;;;;4351339;28;658915;-74
2023/06/08 10:34:40;;;;;;;12.20;9.07;;;23.40;99.90;;;;;;4371936;28;660170;-73
2023/06/08 10:37:28;;;;;;;14.18;9.52;;;24.40;99.90;;;;;;4378212;28;658999;-74
2023/06/08 10:40:18;;;;;;;12.32;8.60;;;25.40;99.90;;;;;;4359272;28;659045;-75
2023/06/08 10:43:05;;;;;;;12.38;8.88;;;25.50;99.90;;;;;;4371026;28;658746;-74
2023/06/08 10:45:53;;;;;;;10.75;8.23;;;25.20;98.20;;;;;;4379391;28;659440;-73
2023/06/08 10:48:41;;;;;;;10.00;6.85;;;24.90;96.70;;;;;;4356642;28;658745;-72
2023/06/08 10:51:28;;;;;;;8.70;6.97;;;24.80;95.30;;;;;;4393256;28;659744;-73
2023/06/08 10:54:22;;;;;;;9.38;6.78;;;24.10;94.40;;;;;;4368798;27;657488;-73
2023/06/08 10:57:10;;;;;;;9.40;7.00;;;24.00;97.80;;;;;;4370479;28;657857;-73
2023/06/08 10:59:57;;;;;;;11.45;7.75;;;23.80;95.60;;;;;;4357120;28;658586;-73
2023/06/08 11:02:45;;;;;;;10.85;8.32;;;23.40;96.70;;;;;;4382363;27;659220;-73
2023/06/08 11:05:33;;;;;;;11.82;8.13;;;23.20;99.90;;;;;;4386623;27;659037;-73
2023/06/08 11:08:20;;;;;;;11.70;8.87;;;23.00;99.90;;;;;;4382516;27;659194;-73
2023/06/08 11:11:07;;;;;;;13.13;9.77;;;22.70;99.90;;;;;;4385795;27;659427;-72
2023/06/08 11:13:57;;;;;;;13.17;9.40;;;22.70;99.90;;;;;;4386590;27;658762;-73
2023/06/08 11:16:49;;;;;;;12.73;9.57;;;22.60;99.90;;;;;;4391732;27;658817;-73
2023/06/08 11:19:36;;;;;;;12.90;9.80;;;22.50;99.90;;;;;;4372626;28;659100;-73
2023/06/08 11:22:24;;;;;;;12.77;9.60;;;22.50;99.90;;;;;;4383188;28;659693;-74
2023/06/08 11:25:11;;;;;;;13.20;9.83;;;22.60;99.90;;;;;;4356975;28;658525;-73
2023/06/08 11:27:58;;;;;;;13.00;9.20;;;22.60;99.90;;;;;;4377656;28;659579;-73
2023/06/08 11:30:47;;;;;;;14.07;10.00;;;22.70;99.90;;;;;;4353853;28;658861;-73
2023/06/08 11:33:34;;;;;;;13.40;9.97;;;22.90;99.90;;;;;;4378490;27;660627;-73
2023/06/08 11:36:21;;;;;;;11.53;8.87;;;22.50;99.90;;;;;;4357457;28;658696;-73
2023/06/08 11:39:09;;;;;;;12.93;9.20;;;22.70;99.90;;;;;;4384017;28;659135;-74
2023/06/08 11:41:56;;;;;;;19.93;12.37;;;22.70;99.90;;;;;;4361605;28;659348;-73
2023/06/08 11:44:43;;;;;;;13.43;9.60;;;22.70;99.90;;;;;;4376723;28;660503;-73
2023/06/08 11:47:32;;;;;;;13.13;9.43;;;22.90;99.90;;;;;;4361668;28;659262;-73
2023/06/08 11:50:19;;;;;;;10.10;7.93;;;23.30;99.90;;;;;;4387616;28;658821;-74
2023/06/08 11:53:06;;;;;;;12.30;8.37;;;24.00;99.90;;;;;;4370083;28;658894;-73
2023/06/08 11:55:54;;;;;;;9.13;7.18;;;24.40;99.90;;;;;;4373714;28;659544;-73
2023/06/08 11:58:41;;;;;;;12.30;7.38;;;24.20;99.20;;;;;;4364848;28;657712;-73
2023/06/08 12:01:29;;;;;;;10.68;7.60;;;24.20;98.20;;;;;;4401676;28;659612;-73
2023/06/08 12:04:19;;;;;;;8.88;6.88;;;24.50;98.20;;;;;;4369125;28;659615;-73
2023/06/08 12:07:10;;;;;;;8.55;7.18;;;24.40;97.90;;;;;;4360726;28;658354;-73
2023/06/08 12:09:57;;;;;;;8.63;7.22;;;24.30;98.00;;;;;;4398404;27;658824;-73
2023/06/08 12:12:44;;;;;;;12.18;8.20;;;24.20;96.70;;;;;;4408074;28;658064;-73
2023/06/08 12:15:35;;;;;;;10.15;7.35;;;24.10;98.10;;;;;;4370451;27;658866;-73
2023/06/08 12:18:22;;;;;;;10.05;7.93;;;24.60;98.80;;;;;;4375680;28;659511;-73
2023/06/08 12:21:13;;;;;;;12.63;7.50;;;25.70;99.90;;;;;;4403114;27;658814;-73
2023/06/08 12:24:01;;;;;;;9.30;7.43;;;25.80;90.20;;;;;;4357317;28;658968;-73
2023/06/08 12:26:48;;;;;;;8.82;7.30;;;25.70;90.60;;;;;;4391903;28;658121;-73
2023/06/08 12:29:36;;;;;;;11.77;7.97;;;25.70;88.80;;;;;;4373023;28;658239;-72
2023/06/08 12:32:24;;;;;;;9.70;6.93;;;25.80;88.90;;;;;;4381680;28;659186;-73
2023/06/08 12:35:11;;;;;;;8.45;6.93;;;25.60;89.10;;;;;;4360726;28;657208;-73
2023/06/08 12:37:59;;;;;;;9.45;6.88;;;25.40;83.10;;;;;;4377141;28;657139;-73
2023/06/08 12:40:48;;;;;;;9.40;6.75;;;25.20;84.70;;;;;;4380417;27;658170;-73
2023/06/08 12:43:41;;;;;;;9.93;7.20;;;24.80;85.10;;;;;;4363700;28;658177;-73
2023/06/08 12:46:29;;;;;;;8.18;6.82;;;24.90;86.60;;;;;;4360707;28;658096;-73
2023/06/08 12:49:16;;;;;;;9.57;6.88;;;24.80;85.10;;;;;;4361283;28;657975;-73
2023/06/08 12:52:04;;;;;;;11.82;7.15;;;24.80;87.20;;;;;;4384310;28;658305;-73
2023/06/08 12:54:52;;;;;;;8.98;6.90;;;25.10;91.20;;;;;;4372854;27;658616;-73
2023/06/08 12:57:39;;;;;;;10.77;6.95;;;25.60;90.60;;;;;;4388291;28;658557;-73
2023/06/08 13:00:27;;;;;;;10.05;7.82;;;25.50;84.50;;;;;;4357313;28;659935;-73
2023/06/08 13:03:14;;;;;;;9.70;7.75;;;25.20;88.00;;;;;;4397264;28;658835;-73
2023/06/08 13:06:01;;;;;;;12.27;8.10;;;25.30;92.40;;;;;;4360563;28;657898;-73
2023/06/08 13:08:48;;;;;;;11.07;7.50;;;25.60;88.20;;;;;;4380688;28;659174;-73
2023/06/08 13:11:39;;;;;;;10.52;7.47;;;26.10;83.70;;;;;;4380867;27;659064;-73
2023/06/08 13:14:26;;;;;;;8.98;7.10;;;25.90;84.10;;;;;;4362631;28;658769;-73
2023/06/08 13:17:14;;;;;;;9.32;6.47;;;25.60;81.10;;;;;;4382972;27;657853;-72
2023/06/08 13:20:02;;;;;;;8.07;6.60;;;25.60;81.60;;;;;;4375450;28;657620;-73
2023/06/08 13:22:50;;;;;;;9.43;6.88;;;26.00;81.60;;;;;;4373532;28;657400;-73
2023/06/08 13:25:37;;;;;;;10.50;7.22;;;26.80;76.40;;;;;;4384911;28;657513;-73
2023/06/08 13:28:27;;;;;;;8.27;6.95;;;27.20;79.80;;;;;;4375477;28;658529;-73
2023/06/08 13:31:14;;;;;;;8.85;6.32;;;27.50;70.50;;;;;;4393078;28;657198;-73
2023/06/08 13:34:01;;;;;;;11.65;7.45;;;27.30;69.60;;;;;;4362917;27;658012;-72
2023/06/08 13:36:48;;;;;;;11.00;7.60;;;26.80;67.70;;;;;;4390772;28;659220;-73
2023/06/08 13:39:36;;;;;;;11.20;7.70;;;26.80;71.20;;;;;;4375455;28;658683;-72
2023/06/08 13:42:23;;;;;;;8.93;7.47;;;27.10;69.80;;;;;;4383242;28;659633;-73
2023/06/08 13:45:12;;;;;;;11.60;7.40;;;26.70;68.20;;;;;;4363596;28;657505;-73
2023/06/08 13:48:01;;;;;;;10.75;6.85;;;26.80;69.20;;;;;;4388694;28;658457;-73
2023/06/08 13:50:48;;;;;;;9.90;7.47;;;26.80;69.90;;;;;;4373773;28;659506;-72
2023/06/08 13:53:35;;;;;;;8.85;7.15;;;26.70;69.10;;;;;;4357784;28;657692;-73
2023/06/08 13:56:22;;;;;;;8.82;6.65;;;26.80;69.20;;;;;;4391787;28;657351;-72
2023/06/08 13:59:11;;;;;;;9.95;6.78;;;27.00;70.10;;;;;;4402914;27;657745;-72
2023/06/08 14:01:59;;;;;;;8.48;6.18;;;27.00;67.30;;;;;;4384382;28;659238;-73
2023/06/08 14:04:46;;;;;;;8.45;6.68;;;27.20;67.70;;;;;;4354024;28;658082;-73
2023/06/08 14:07:34;;;;;;;11.55;7.35;;;27.20;68.30;;;;;;4404269;27;658626;-72
2023/06/08 14:10:21;;;;;;;10.50;7.50;;;26.70;68.90;;;;;;4381868;28;658255;-72
2023/06/08 14:13:08;;;;;;;9.88;7.35;;;26.30;69.80;;;;;;4390096;28;659422;-72
2023/06/08 14:15:55;;;;;;;8.43;7.00;;;26.00;71.30;;;;;;4372018;28;657463;-73
2023/06/08 14:18:44;;;;;;;10.95;7.20;;;25.70;71.40;;;;;;4407039;27;658027;-73